createdAt,value
2022-10-08T00:01:26.095Z,22.10
2022-10-08T00:03:54.666Z,29.45
2022-10-08T00:06:23.577Z,28.40
2022-10-08T00:08:54.213Z,16.90
2022-10-08T00:11:25.063Z,21.88
2022-10-08T00:16:26.400Z,16.63
2022-10-08T00:18:58.273Z,20.73
2022-10-08T00:21:29.867Z,25.58
2022-10-08T00:23:58.918Z,36.38
2022-10-08T00:26:29.377Z,23.98
2022-10-08T00:28:59.575Z,24.92
2022-10-08T00:31:31.859Z,24.77
2022-10-08T00:34:02.066Z,20.00
2022-10-08T00:36:31.902Z,24.88
2022-10-08T00:39:02.369Z,22.70
2022-10-08T00:41:33.151Z,26.48
2022-10-08T00:44:03.955Z,28.08
2022-10-08T00:46:39.643Z,23.83
2022-10-08T00:49:12.941Z,25.75
2022-10-08T00:51:58.974Z,24.90
2022-10-08T00:54:26.833Z,19.25
2022-10-08T00:56:55.277Z,19.98
2022-10-08T00:59:23.242Z,24.85
2022-10-08T01:01:50.870Z,20.52
2022-10-08T01:04:18.398Z,22.52
2022-10-08T01:06:57.979Z,21.35
2022-10-08T01:09:33.844Z,25.42
2022-10-08T01:12:23.931Z,18.90
2022-10-08T01:14:54.795Z,24.65
2022-10-08T01:17:27.222Z,24.38
2022-10-08T01:20:11.638Z,22.25
2022-10-08T01:23:26.322Z,27.00
2022-10-08T01:26:23.946Z,24.85
2022-10-08T01:28:59.888Z,28.10
2022-10-08T01:31:32.853Z,23.67
2022-10-08T01:34:08.037Z,16.58
2022-10-08T01:36:43.555Z,19.70
2022-10-08T01:39:16.270Z,22.80
2022-10-08T01:41:50.097Z,25.23
2022-10-08T01:44:24.121Z,20.10
2022-10-08T01:46:55.428Z,23.60
2022-10-08T01:49:26.861Z,20.20
2022-10-08T01:51:58.475Z,21.42
2022-10-08T01:54:29.605Z,22.33
2022-10-08T01:59:42.881Z,16.83
2022-10-08T02:02:13.393Z,23.98
2022-10-08T02:04:41.736Z,23.27
2022-10-08T02:07:15.111Z,17.23
2022-10-08T02:09:47.868Z,24.58
2022-10-08T02:12:15.775Z,27.33
2022-10-08T02:14:49.777Z,15.27
2022-10-08T02:17:50.688Z,19.45
2022-10-08T02:20:27.206Z,21.17
2022-10-08T02:23:24.044Z,20.90
2022-10-08T02:26:03.886Z,25.20
2022-10-08T02:28:54.000Z,14.60
2022-10-08T02:31:32.963Z,20.10
2022-10-08T02:34:29.680Z,19.77
2022-10-08T02:37:04.200Z,21.60
2022-10-08T02:39:36.572Z,18.60
2022-10-08T02:42:11.768Z,14.40
2022-10-08T02:44:45.782Z,19.42
2022-10-08T02:47:18.366Z,18.60
2022-10-08T02:49:55.233Z,12.48
2022-10-08T02:52:27.221Z,17.80
2022-10-08T02:54:56.545Z,20.48
2022-10-08T02:57:54.686Z,22.52
2022-10-08T03:00:23.574Z,21.10
2022-10-08T03:03:01.312Z,13.07
2022-10-08T03:05:29.663Z,20.27
2022-10-08T03:07:58.978Z,12.82
2022-10-08T03:10:30.536Z,16.55
2022-10-08T03:13:02.685Z,16.83
2022-10-08T03:15:33.282Z,22.98
2022-10-08T03:18:04.456Z,15.48
2022-10-08T03:20:32.534Z,18.58
2022-10-08T03:23:01.782Z,16.77
2022-10-08T03:25:29.502Z,19.85
2022-10-08T03:27:57.086Z,14.15
2022-10-08T03:30:24.673Z,20.55
2022-10-08T03:32:52.201Z,18.65
2022-10-08T03:35:19.764Z,19.92
2022-10-08T03:37:47.531Z,11.68
2022-10-08T03:40:15.299Z,23.25
2022-10-08T03:42:43.107Z,15.77
2022-10-08T03:45:10.695Z,19.70
2022-10-08T03:47:38.141Z,20.00
2022-10-08T03:50:06.255Z,15.55
2022-10-08T03:52:33.856Z,21.27
2022-10-08T03:55:01.310Z,20.50
2022-10-08T03:57:28.935Z,22.17
2022-10-08T03:59:56.478Z,18.92
2022-10-08T04:02:24.116Z,13.80
2022-10-08T04:04:52.140Z,18.15
2022-10-08T04:07:19.693Z,19.30
2022-10-08T04:09:47.119Z,16.42
2022-10-08T04:12:14.817Z,17.38
2022-10-08T04:14:42.335Z,16.85
2022-10-08T04:17:09.939Z,17.05
2022-10-08T04:19:37.406Z,21.20
2022-10-08T04:22:04.932Z,21.60
2022-10-08T04:24:32.475Z,19.85
2022-10-08T04:27:00.173Z,17.17
2022-10-08T04:29:27.985Z,18.15
2022-10-08T04:31:55.531Z,20.55
2022-10-08T04:34:23.056Z,15.60
2022-10-08T04:36:50.561Z,16.75
2022-10-08T04:39:18.202Z,18.92
2022-10-08T04:41:45.796Z,17.45
2022-10-08T04:44:13.665Z,19.02
2022-10-08T04:46:41.938Z,18.85
2022-10-08T04:49:10.163Z,16.90
2022-10-08T04:51:37.748Z,17.40
2022-10-08T04:54:05.303Z,18.83
2022-10-08T04:56:35.509Z,16.15
2022-10-08T04:59:03.708Z,24.37
2022-10-08T05:01:31.531Z,14.25
2022-10-08T05:03:59.886Z,16.10
2022-10-08T05:06:29.930Z,23.10
2022-10-08T05:08:59.950Z,15.70
2022-10-08T05:11:27.645Z,15.88
2022-10-08T05:13:57.337Z,18.83
2022-10-08T05:16:26.323Z,17.15
2022-10-08T05:18:54.185Z,17.52
2022-10-08T05:21:24.550Z,19.73
2022-10-08T05:23:59.727Z,17.80
2022-10-08T05:26:56.330Z,26.27
2022-10-08T05:29:18.784Z,14.57
2022-10-08T05:31:46.430Z,13.80
2022-10-08T05:34:14.897Z,13.10
2022-10-08T05:36:42.454Z,20.33
2022-10-08T05:39:10.994Z,14.07
2022-10-08T05:41:38.819Z,10.52
2022-10-08T05:44:06.916Z,18.65
2022-10-08T05:46:36.038Z,13.90
2022-10-08T05:49:05.805Z,14.30
2022-10-08T05:51:34.171Z,17.38
2022-10-08T05:54:01.624Z,11.80
2022-10-08T05:56:29.370Z,16.58
2022-10-08T05:58:56.903Z,18.15
2022-10-08T06:01:27.944Z,15.45
2022-10-08T06:03:58.338Z,9.27
2022-10-08T06:06:26.293Z,12.77
2022-10-08T06:08:59.396Z,16.65
2022-10-08T06:11:31.909Z,15.50
2022-10-08T06:14:00.532Z,19.05
2022-10-08T06:16:29.518Z,15.27
2022-10-08T06:18:57.076Z,18.58
2022-10-08T06:21:26.680Z,16.25
2022-10-08T06:23:56.734Z,20.48
2022-10-08T06:26:32.892Z,11.73
2022-10-08T06:29:05.589Z,12.65
2022-10-08T06:31:36.594Z,12.95
2022-10-08T06:36:34.092Z,16.00
2022-10-08T06:39:07.332Z,17.60
2022-10-08T06:41:35.265Z,13.38
2022-10-08T06:44:05.685Z,12.90
2022-10-08T06:46:34.097Z,13.90
2022-10-08T06:49:02.342Z,17.27
2022-10-08T06:51:30.733Z,17.70
2022-10-08T06:54:04.371Z,20.80
2022-10-08T06:56:36.111Z,24.35
2022-10-08T06:59:04.701Z,12.60
2022-10-08T07:01:34.182Z,15.98
2022-10-08T07:04:03.248Z,17.50
2022-10-08T07:06:31.110Z,17.52
2022-10-08T07:09:00.939Z,12.68
2022-10-08T07:11:30.315Z,12.52
2022-10-08T07:13:58.415Z,16.85
2022-10-08T07:16:27.731Z,13.27
2022-10-08T07:18:58.211Z,17.60
2022-10-08T07:21:26.828Z,15.20
2022-10-08T07:23:56.200Z,15.73
2022-10-08T07:26:26.762Z,12.43
2022-10-08T07:29:05.146Z,13.35
2022-10-08T07:31:35.669Z,13.65
2022-10-08T07:34:05.965Z,16.60
2022-10-08T07:36:34.104Z,11.30
2022-10-08T07:39:04.983Z,16.65
2022-10-08T07:41:33.040Z,20.35
2022-10-08T07:44:02.524Z,22.00
2022-10-08T07:46:33.770Z,17.20
2022-10-08T07:49:02.293Z,10.60
2022-10-08T07:51:31.640Z,14.80
2022-10-08T07:54:02.724Z,12.70
2022-10-08T07:56:31.587Z,11.75
2022-10-08T07:59:00.601Z,14.43
2022-10-08T08:01:30.205Z,16.95
2022-10-08T08:04:01.005Z,13.50
2022-10-08T08:06:30.333Z,18.25
2022-10-08T08:09:01.048Z,15.13
2022-10-08T08:11:29.794Z,20.65
2022-10-08T08:13:57.418Z,11.38
2022-10-08T08:16:27.114Z,15.35
2022-10-08T08:18:57.072Z,16.75
2022-10-08T08:21:35.491Z,16.33
2022-10-08T08:24:12.804Z,14.40
2022-10-08T08:26:42.289Z,12.52
2022-10-08T08:29:15.490Z,13.80
2022-10-08T08:31:46.018Z,16.25
2022-10-08T08:34:19.786Z,20.48
2022-10-08T08:36:49.656Z,17.48
2022-10-08T08:39:18.532Z,17.45
2022-10-08T08:42:12.865Z,16.65
2022-10-08T08:44:47.129Z,10.48
2022-10-08T08:47:24.479Z,13.48
2022-10-08T08:50:00.476Z,13.45
2022-10-08T08:52:37.863Z,17.20
2022-10-08T08:55:34.079Z,12.40
2022-10-08T08:58:21.207Z,14.57
2022-10-08T09:00:57.969Z,13.93
2022-10-08T09:03:34.708Z,13.98
2022-10-08T09:06:10.089Z,14.98
2022-10-08T09:08:43.744Z,14.88
2022-10-08T09:11:15.198Z,11.05
2022-10-08T09:14:21.629Z,11.63
2022-10-08T09:16:49.297Z,14.38
2022-10-08T09:19:16.700Z,11.25
2022-10-08T09:21:44.192Z,11.65
2022-10-08T09:24:12.169Z,17.30
2022-10-08T09:26:41.658Z,20.70
2022-10-08T09:29:33.618Z,12.15
2022-10-08T09:32:01.045Z,13.18
2022-10-08T09:34:28.563Z,14.18
2022-10-08T09:37:11.912Z,10.20
2022-10-08T09:39:39.446Z,14.95
2022-10-08T09:42:06.976Z,13.85
2022-10-08T09:44:43.460Z,11.93
2022-10-08T09:47:17.040Z,12.73
2022-10-08T09:49:49.953Z,12.32
2022-10-08T09:52:26.911Z,8.85
2022-10-08T09:55:08.760Z,11.13
2022-10-08T09:57:44.745Z,14.40
2022-10-08T10:00:26.275Z,12.07
2022-10-08T10:02:55.710Z,16.33
2022-10-08T10:05:26.418Z,15.20
2022-10-08T10:07:54.327Z,7.03
2022-10-08T10:10:30.061Z,13.40
2022-10-08T10:13:12.124Z,9.07
2022-10-08T10:15:46.967Z,14.40
2022-10-08T10:18:19.505Z,16.55
2022-10-08T10:20:55.381Z,13.02
2022-10-08T10:23:50.251Z,16.25
2022-10-08T10:26:26.990Z,16.02
2022-10-08T10:29:17.325Z,10.77
2022-10-08T10:31:58.067Z,15.70
2022-10-08T10:34:29.089Z,11.00
2022-10-08T10:37:20.519Z,12.80
2022-10-08T10:40:06.244Z,14.05
2022-10-08T10:42:43.377Z,13.02
2022-10-08T10:45:13.827Z,10.88
2022-10-08T10:47:41.636Z,12.18
2022-10-08T10:50:16.393Z,11.52
2022-10-08T10:53:02.951Z,15.07
2022-10-08T10:55:37.583Z,8.07
2022-10-08T10:58:31.031Z,8.85
2022-10-08T11:00:58.477Z,8.60
2022-10-08T11:03:47.982Z,9.70
2022-10-08T11:06:30.954Z,8.20
2022-10-08T11:09:04.746Z,10.20
2022-10-08T11:11:40.996Z,12.65
2022-10-08T11:14:20.087Z,13.70
2022-10-08T11:16:47.487Z,10.13
2022-10-08T11:19:57.378Z,8.57
2022-10-08T11:22:44.582Z,12.43
2022-10-08T11:25:29.014Z,12.85
2022-10-08T11:28:15.295Z,13.98
2022-10-08T11:30:50.707Z,10.93
2022-10-08T11:33:18.923Z,10.80
2022-10-08T11:36:05.015Z,9.82
2022-10-08T11:38:53.326Z,13.15
2022-10-08T11:41:37.696Z,12.25
2022-10-08T11:44:09.833Z,12.95
2022-10-08T11:46:37.453Z,10.38
2022-10-08T11:49:16.768Z,9.40
2022-10-08T11:51:50.456Z,8.10
2022-10-08T11:54:38.414Z,8.85
2022-10-08T11:57:20.487Z,7.78
2022-10-08T12:00:08.731Z,6.78
2022-10-08T12:02:44.108Z,8.13
2022-10-08T12:05:23.781Z,6.80
2022-10-08T12:07:56.877Z,9.00
2022-10-08T12:10:26.792Z,12.48
2022-10-08T12:12:59.674Z,10.85
2022-10-08T12:15:27.810Z,11.80
2022-10-08T12:17:56.316Z,8.65
2022-10-08T12:20:29.395Z,9.18
2022-10-08T12:23:04.226Z,8.20
2022-10-08T12:25:35.449Z,7.55
2022-10-08T12:28:21.368Z,6.57
2022-10-08T12:30:57.317Z,7.45
2022-10-08T12:33:25.895Z,6.88
2022-10-08T12:36:04.280Z,8.63
2022-10-08T12:38:31.840Z,7.95
2022-10-08T12:41:21.493Z,8.70
2022-10-08T12:44:06.964Z,5.82
2022-10-08T12:46:51.884Z,5.97
2022-10-08T12:49:44.833Z,6.65
2022-10-08T12:52:15.609Z,6.55
2022-10-08T12:57:41.344Z,7.95
2022-10-08T13:00:31.192Z,5.10
2022-10-08T13:03:07.461Z,8.48
2022-10-08T13:05:37.656Z,6.22
2022-10-08T13:08:29.276Z,5.50
2022-10-08T13:11:02.216Z,8.38
2022-10-08T13:13:33.395Z,7.40
2022-10-08T13:16:02.379Z,5.38
2022-10-08T13:18:30.814Z,8.23
2022-10-08T13:21:03.837Z,9.43
2022-10-08T13:23:35.901Z,7.43
2022-10-08T13:26:03.646Z,5.63
2022-10-08T13:28:59.172Z,5.93
2022-10-08T13:31:24.821Z,7.68
2022-10-08T13:33:52.454Z,5.47
2022-10-08T13:36:23.275Z,6.70
2022-10-08T13:38:50.932Z,7.68
2022-10-08T13:41:25.441Z,5.78
2022-10-08T13:43:52.984Z,7.32
2022-10-08T13:46:20.504Z,6.80
2022-10-08T13:48:48.060Z,5.97
2022-10-08T13:51:15.679Z,6.72
2022-10-08T13:53:45.783Z,4.82
2022-10-08T13:56:13.747Z,7.47
2022-10-08T13:58:41.197Z,6.72
2022-10-08T14:01:08.750Z,9.07
2022-10-08T14:03:36.173Z,6.13
2022-10-08T14:06:03.948Z,8.85
2022-10-08T14:08:32.736Z,6.28
2022-10-08T14:11:00.547Z,5.68
2022-10-08T14:13:29.677Z,6.35
2022-10-08T14:15:57.350Z,8.32
2022-10-08T14:18:24.905Z,7.97
2022-10-08T14:20:52.789Z,9.30
2022-10-08T14:23:22.211Z,8.27
2022-10-08T14:25:51.135Z,6.33
2022-10-08T14:28:18.817Z,7.07
2022-10-08T14:30:46.248Z,6.07
2022-10-08T14:33:13.808Z,7.32
2022-10-08T14:35:41.280Z,5.68
2022-10-08T14:38:09.250Z,7.15
2022-10-08T14:40:36.826Z,7.47
2022-10-08T14:43:04.354Z,7.60
2022-10-08T14:45:31.838Z,6.65
2022-10-08T14:47:59.263Z,8.35
2022-10-08T14:50:26.867Z,8.45
2022-10-08T14:52:54.267Z,5.50
2022-10-08T14:55:21.758Z,6.53
2022-10-08T14:57:49.224Z,8.05
2022-10-08T15:00:16.912Z,5.85
2022-10-08T15:02:44.365Z,3.50
2022-10-08T15:05:11.817Z,9.30
2022-10-08T15:07:39.244Z,6.93
2022-10-08T15:10:07.206Z,5.55
2022-10-08T15:12:34.622Z,7.82
2022-10-08T15:15:02.098Z,8.93
2022-10-08T15:17:29.753Z,9.63
2022-10-08T15:19:58.028Z,7.15
2022-10-08T15:22:25.410Z,8.50
2022-10-08T15:24:52.825Z,6.75
2022-10-08T15:27:21.126Z,7.35
2022-10-08T15:29:48.675Z,7.50
2022-10-08T15:32:16.115Z,5.45
2022-10-08T15:34:43.582Z,5.57
2022-10-08T15:37:11.168Z,5.25
2022-10-08T15:39:38.635Z,6.32
2022-10-08T15:42:06.313Z,6.80
2022-10-08T15:44:33.706Z,7.78
2022-10-08T15:47:02.665Z,7.88
2022-10-08T15:49:41.910Z,5.85
2022-10-08T15:52:15.105Z,6.47
2022-10-08T15:54:43.230Z,6.63
2022-10-08T15:57:12.594Z,6.80
2022-10-08T15:59:40.485Z,5.45
2022-10-08T16:02:15.563Z,6.53
2022-10-08T16:04:46.566Z,8.93
2022-10-08T16:07:14.024Z,7.88
2022-10-08T16:09:41.555Z,7.70
2022-10-08T16:12:09.243Z,5.28
2022-10-08T16:14:36.779Z,5.03
2022-10-08T16:17:04.328Z,9.02
2022-10-08T16:19:31.806Z,9.48
2022-10-08T16:21:59.340Z,7.82
2022-10-08T16:24:26.842Z,9.27
2022-10-08T16:26:54.463Z,8.05
2022-10-08T16:29:21.911Z,8.18
2022-10-08T16:31:49.525Z,7.57
2022-10-08T16:34:20.217Z,7.75
2022-10-08T16:36:48.670Z,11.52
2022-10-08T16:39:18.792Z,7.15
2022-10-08T16:41:47.353Z,6.30
2022-10-08T16:44:17.945Z,8.40
2022-10-08T16:46:51.306Z,11.27
2022-10-08T16:49:25.773Z,8.73
2022-10-08T16:51:59.260Z,38.38
2022-10-08T16:54:27.662Z,17.88
2022-10-08T16:56:55.427Z,20.13
2022-10-08T16:59:25.068Z,25.40
2022-10-08T17:01:54.887Z,26.38
2022-10-08T17:04:24.646Z,11.55
2022-10-08T17:06:52.530Z,8.00
2022-10-08T17:09:21.181Z,9.02
2022-10-08T17:11:49.081Z,16.45
2022-10-08T17:14:16.812Z,10.38
2022-10-08T17:16:45.633Z,10.15
2022-10-08T17:19:13.263Z,11.27
2022-10-08T17:21:41.695Z,10.68
2022-10-08T17:24:11.560Z,12.15
2022-10-08T17:26:39.620Z,9.95
2022-10-08T17:29:10.828Z,12.10
2022-10-08T17:31:39.333Z,7.18
2022-10-08T17:34:07.238Z,10.52
2022-10-08T17:36:37.692Z,12.50
2022-10-08T17:39:07.006Z,13.25
2022-10-08T17:41:36.756Z,13.02
2022-10-08T17:44:06.883Z,10.68
2022-10-08T17:46:37.795Z,10.33
2022-10-08T17:51:34.396Z,12.43
2022-10-08T17:54:04.952Z,12.20
2022-10-08T17:56:32.616Z,18.00
2022-10-08T17:59:00.661Z,13.55
2022-10-08T18:01:33.622Z,14.05
2022-10-08T18:04:04.134Z,19.38
2022-10-08T18:06:33.290Z,21.48
2022-10-08T18:09:04.125Z,17.40
2022-10-08T18:11:33.783Z,18.23
2022-10-08T18:14:05.568Z,14.48
2022-10-08T18:16:34.072Z,15.52
2022-10-08T18:19:06.160Z,17.33
2022-10-08T18:21:35.974Z,14.15
2022-10-08T18:24:03.897Z,11.27
2022-10-08T18:26:34.833Z,12.18
2022-10-08T18:31:37.097Z,11.38
2022-10-08T18:34:08.149Z,15.85
2022-10-08T18:39:07.675Z,17.58
2022-10-08T18:41:38.511Z,15.57
2022-10-08T18:46:35.618Z,22.08
2022-10-08T18:49:04.266Z,17.98
2022-10-08T18:51:32.320Z,16.75
2022-10-08T18:54:02.141Z,38.30
2022-10-08T18:56:33.329Z,26.15
2022-10-08T18:59:02.331Z,23.25
2022-10-08T19:01:32.733Z,17.88
2022-10-08T19:04:02.469Z,16.15
2022-10-08T19:06:32.787Z,19.58
2022-10-08T19:09:00.846Z,17.00
2022-10-08T19:11:36.379Z,15.80
2022-10-08T19:14:10.070Z,14.73
2022-10-08T19:16:39.506Z,13.95
2022-10-08T19:19:18.337Z,17.58
2022-10-08T19:21:46.729Z,15.80
2022-10-08T19:24:22.441Z,18.35
2022-10-08T19:26:50.762Z,15.60
2022-10-08T19:29:22.065Z,18.10
2022-10-08T19:31:51.955Z,17.35
2022-10-08T19:34:22.582Z,13.80
2022-10-08T19:36:50.251Z,10.25
2022-10-08T19:39:26.575Z,18.52
2022-10-08T19:41:54.155Z,20.13
2022-10-08T19:44:21.853Z,17.30
2022-10-08T19:46:49.716Z,15.30
2022-10-08T19:49:18.573Z,17.20
2022-10-08T19:51:46.294Z,15.85
2022-10-08T19:54:16.056Z,17.90
2022-10-08T19:56:43.598Z,15.13
2022-10-08T19:59:12.024Z,22.00
2022-10-08T20:01:40.134Z,17.60
2022-10-08T20:04:09.352Z,25.23
2022-10-08T20:06:40.447Z,14.35
2022-10-08T20:09:12.046Z,16.85
2022-10-08T20:11:41.232Z,12.90
2022-10-08T20:14:09.341Z,9.27
2022-10-08T20:16:40.415Z,17.38
2022-10-08T20:19:13.270Z,16.15
2022-10-08T20:21:40.801Z,16.58
2022-10-08T20:24:08.588Z,16.38
2022-10-08T20:26:38.862Z,17.42
2022-10-08T20:29:13.047Z,17.23
2022-10-08T20:31:47.353Z,21.10
2022-10-08T20:34:20.073Z,39.28
2022-10-08T20:36:48.446Z,47.50
2022-10-08T20:39:18.055Z,48.90
2022-10-08T20:41:46.056Z,24.83
2022-10-08T20:44:14.141Z,19.52
2022-10-08T20:46:41.914Z,22.08
2022-10-08T20:49:11.520Z,20.48
2022-10-08T20:51:40.937Z,17.33
2022-10-08T20:54:11.276Z,18.02
2022-10-08T20:56:40.614Z,14.63
2022-10-08T20:59:09.698Z,20.65
2022-10-08T21:01:38.755Z,14.85
2022-10-08T21:04:07.500Z,16.98
2022-10-08T21:06:41.717Z,14.50
2022-10-08T21:09:09.916Z,12.88
2022-10-08T21:11:38.927Z,13.68
2022-10-08T21:14:08.400Z,18.48
2022-10-08T21:16:38.705Z,13.77
2022-10-08T21:19:14.755Z,15.93
2022-10-08T21:21:42.337Z,13.40
2022-10-08T21:24:10.016Z,11.70
2022-10-08T21:26:39.912Z,12.05
2022-10-08T21:29:09.603Z,11.63
2022-10-08T21:31:38.496Z,14.95
2022-10-08T21:34:06.993Z,15.98
2022-10-08T21:36:37.753Z,12.80
2022-10-08T21:39:07.081Z,18.30
2022-10-08T21:41:36.434Z,12.95
2022-10-08T21:44:06.675Z,15.57
2022-10-08T21:46:37.041Z,11.93
2022-10-08T21:49:22.140Z,16.80
2022-10-08T21:51:49.708Z,12.20
2022-10-08T21:54:17.439Z,11.55
2022-10-08T21:56:45.268Z,17.67
2022-10-08T21:59:14.977Z,14.50
2022-10-08T22:01:47.840Z,13.57
2022-10-08T22:04:18.142Z,10.60
2022-10-08T22:06:48.775Z,14.05
2022-10-08T22:09:21.824Z,13.63
2022-10-08T22:11:50.162Z,13.45
2022-10-08T22:14:18.366Z,15.30
2022-10-08T22:16:46.257Z,13.65
2022-10-08T22:19:15.115Z,12.85
2022-10-08T22:21:43.206Z,10.65
2022-10-08T22:24:11.988Z,12.05
2022-10-08T22:26:43.175Z,16.38
2022-10-08T22:29:11.293Z,15.95
2022-10-08T22:31:40.019Z,14.05
2022-10-08T22:34:07.849Z,15.40
2022-10-08T22:36:42.691Z,13.10
2022-10-08T22:39:10.757Z,17.70
2022-10-08T22:41:38.670Z,12.45
2022-10-08T22:44:06.160Z,13.82
2022-10-08T22:46:39.186Z,16.05
2022-10-08T22:49:10.219Z,13.77
2022-10-08T22:51:38.559Z,12.98
2022-10-08T22:54:06.278Z,13.02
2022-10-08T22:56:34.490Z,15.13
2022-10-08T22:59:02.289Z,10.93
2022-10-08T23:01:32.044Z,13.45
2022-10-08T23:04:00.042Z,21.92
2022-10-08T23:06:31.205Z,14.55
2022-10-08T23:09:04.880Z,8.93
2022-10-08T23:11:33.327Z,10.95
2022-10-08T23:14:02.202Z,14.15
2022-10-08T23:16:31.945Z,13.27
2022-10-08T23:19:07.975Z,13.57
2022-10-08T23:21:36.951Z,11.88
2022-10-08T23:24:05.791Z,13.13
2022-10-08T23:26:34.704Z,11.50
2022-10-08T23:29:03.186Z,13.60
2022-10-08T23:31:35.230Z,11.45
2022-10-08T23:34:04.419Z,12.43
2022-10-08T23:36:38.251Z,15.85
2022-10-08T23:39:07.869Z,14.63
2022-10-08T23:41:37.148Z,12.38
2022-10-08T23:44:05.543Z,15.98
2022-10-08T23:46:33.361Z,16.80
2022-10-08T23:49:01.559Z,10.85
2022-10-08T23:51:31.620Z,10.50
2022-10-08T23:54:01.170Z,15.80
2022-10-08T23:56:29.065Z,12.63
2022-10-08T23:58:57.347Z,10.30
